sensor_id;sensor_type;location;lat;lon;timestamp;P1;durP1;ratioP1;P2;durP2;ratioP2
9904;SDS011;4991;43.566;27.820;2023-02-08T00:00:23;33.00;;;17.13;;
9904;SDS011;4991;43.566;27.820;2023-02-08T00:02:50;26.13;;;13.33;;
9904;SDS011;4991;43.566;27.820;2023-02-08T00:05:16;26.60;;;15.27;;
9904;SDS011;4991;43.566;27.820;2023-02-08T00:07:42;31.17;;;19.13;;
9904;SDS011;4991;43.566;27.820;2023-02-08T00:10:08;32.03;;;18.03;;
9904;SDS011;4991;43.566;27.820;2023-02-08T00:12:35;31.93;;;19.73;;
9904;SDS011;4991;43.566;27.820;2023-02-08T00:15:00;27.43;;;15.50;;
9904;SDS011;4991;43.566;27.820;2023-02-08T00:17:26;22.83;;;12.80;;
9904;SDS011;4991;43.566;27.820;2023-02-08T00:19:52;33.30;;;19.47;;
9904;SDS011;4991;43.566;27.820;2023-02-08T00:22:17;25.10;;;14.67;;
9904;SDS011;4991;43.566;27.820;2023-02-08T00:24:43;27.43;;;16.67;;
9904;SDS011;4991;43.566;27.820;2023-02-08T00:27:09;22.30;;;13.20;;
9904;SDS011;4991;43.566;27.820;2023-02-08T00:29:34;28.27;;;15.73;;
9904;SDS011;4991;43.566;27.820;2023-02-08T00:32:00;30.77;;;18.50;;
9904;SDS011;4991;43.566;27.820;2023-02-08T00:34:26;17.20;;;8.10;;
9904;SDS011;4991;43.566;27.820;2023-02-08T00:36:51;26.47;;;15.83;;
9904;SDS011;4991;43.566;27.820;2023-02-08T00:39:17;25.97;;;15.77;;
9904;SDS011;4991;43.566;27.820;2023-02-08T00:41:45;23.03;;;14.00;;
9904;SDS011;4991;43.566;27.820;2023-02-08T00:44:11;26.13;;;14.40;;
9904;SDS011;4991;43.566;27.820;2023-02-08T00:46:37;24.23;;;11.37;;
9904;SDS011;4991;43.566;27.820;2023-02-08T00:49:02;24.50;;;13.40;;
9904;SDS011;4991;43.566;27.820;2023-02-08T00:51:28;21.47;;;13.43;;
9904;SDS011;4991;43.566;27.820;2023-02-08T00:53:53;25.27;;;15.57;;
9904;SDS011;4991;43.566;27.820;2023-02-08T00:56:19;22.83;;;12.83;;
9904;SDS011;4991;43.566;27.820;2023-02-08T00:58:45;22.17;;;13.60;;
9904;SDS011;4991;43.566;27.820;2023-02-08T01:01:11;22.63;;;13.47;;
9904;SDS011;4991;43.566;27.820;2023-02-08T01:03:38;11.87;;;7.40;;
9904;SDS011;4991;43.566;27.820;2023-02-08T01:06:12;19.03;;;10.60;;
9904;SDS011;4991;43.566;27.820;2023-02-08T01:08:40;21.97;;;13.00;;
9904;SDS011;4991;43.566;27.820;2023-02-08T01:11:08;14.83;;;8.87;;
9904;SDS011;4991;43.566;27.820;2023-02-08T01:13:37;7.67;;;4.77;;
9904;SDS011;4991;43.566;27.820;2023-02-08T01:16:07;11.37;;;6.50;;
9904;SDS011;4991;43.566;27.820;2023-02-08T01:18:43;16.00;;;9.73;;
9904;SDS011;4991;43.566;27.820;2023-02-08T01:21:11;7.27;;;4.10;;
9904;SDS011;4991;43.566;27.820;2023-02-08T01:23:38;14.30;;;8.97;;
9904;SDS011;4991;43.566;27.820;2023-02-08T01:26:06;7.87;;;3.83;;
9904;SDS011;4991;43.566;27.820;2023-02-08T01:28:32;6.60;;;4.30;;
9904;SDS011;4991;43.566;27.820;2023-02-08T01:30:58;8.20;;;4.50;;
9904;SDS011;4991;43.566;27.820;2023-02-08T01:33:24;12.47;;;8.20;;
9904;SDS011;4991;43.566;27.820;2023-02-08T01:35:50;16.50;;;8.27;;
9904;SDS011;4991;43.566;27.820;2023-02-08T01:38:17;13.20;;;8.00;;
9904;SDS011;4991;43.566;27.820;2023-02-08T01:40:43;13.50;;;7.43;;
9904;SDS011;4991;43.566;27.820;2023-02-08T01:43:18;13.60;;;8.20;;
9904;SDS011;4991;43.566;27.820;2023-02-08T01:45:55;13.83;;;8.20;;
9904;SDS011;4991;43.566;27.820;2023-02-08T01:48:29;12.93;;;8.27;;
9904;SDS011;4991;43.566;27.820;2023-02-08T01:51:01;14.10;;;8.40;;
9904;SDS011;4991;43.566;27.820;2023-02-08T01:53:38;13.47;;;8.37;;
9904;SDS011;4991;43.566;27.820;2023-02-08T01:56:07;15.73;;;9.60;;
9904;SDS011;4991;43.566;27.820;2023-02-08T01:58:38;13.43;;;8.30;;
9904;SDS011;4991;43.566;27.820;2023-02-08T02:01:08;13.47;;;8.73;;
9904;SDS011;4991;43.566;27.820;2023-02-08T02:03:34;9.63;;;5.70;;
9904;SDS011;4991;43.566;27.820;2023-02-08T02:06:01;11.67;;;7.53;;
9904;SDS011;4991;43.566;27.820;2023-02-08T02:08:41;13.43;;;8.40;;
9904;SDS011;4991;43.566;27.820;2023-02-08T02:11:16;13.97;;;8.97;;
9904;SDS011;4991;43.566;27.820;2023-02-08T02:13:42;11.67;;;7.53;;
9904;SDS011;4991;43.566;27.820;2023-02-08T02:16:08;17.30;;;9.97;;
9904;SDS011;4991;43.566;27.820;2023-02-08T02:18:34;14.27;;;9.33;;
9904;SDS011;4991;43.566;27.820;2023-02-08T02:24:07;13.47;;;7.67;;
9904;SDS011;4991;43.566;27.820;2023-02-08T02:32:54;15.90;;;9.00;;
9904;SDS011;4991;43.566;27.820;2023-02-08T02:38:02;15.23;;;9.47;;
9904;SDS011;4991;43.566;27.820;2023-02-08T02:40:45;14.87;;;8.77;;
9904;SDS011;4991;43.566;27.820;2023-02-08T02:43:38;10.93;;;5.93;;
9904;SDS011;4991;43.566;27.820;2023-02-08T02:51:40;8.80;;;4.20;;
9904;SDS011;4991;43.566;27.820;2023-02-08T02:54:13;3.23;;;2.67;;
9904;SDS011;4991;43.566;27.820;2023-02-08T02:56:46;10.70;;;7.43;;
9904;SDS011;4991;43.566;27.820;2023-02-08T02:59:14;9.67;;;6.00;;
9904;SDS011;4991;43.566;27.820;2023-02-08T03:01:42;9.87;;;5.67;;
9904;SDS011;4991;43.566;27.820;2023-02-08T03:04:17;10.47;;;4.57;;
9904;SDS011;4991;43.566;27.820;2023-02-08T03:07:10;10.23;;;5.97;;
9904;SDS011;4991;43.566;27.820;2023-02-08T03:23:34;7.87;;;4.40;;
9904;SDS011;4991;43.566;27.820;2023-02-08T03:31:41;8.20;;;4.37;;
9904;SDS011;4991;43.566;27.820;2023-02-08T03:34:27;10.20;;;6.20;;
9904;SDS011;4991;43.566;27.820;2023-02-08T03:37:03;7.40;;;4.70;;
9904;SDS011;4991;43.566;27.820;2023-02-08T03:39:38;7.77;;;4.30;;
9904;SDS011;4991;43.566;27.820;2023-02-08T03:42:10;6.37;;;2.73;;
9904;SDS011;4991;43.566;27.820;2023-02-08T03:44:43;5.63;;;3.77;;
9904;SDS011;4991;43.566;27.820;2023-02-08T03:49:42;8.93;;;5.13;;
9904;SDS011;4991;43.566;27.820;2023-02-08T03:52:11;3.10;;;2.63;;
9904;SDS011;4991;43.566;27.820;2023-02-08T03:54:41;6.90;;;3.97;;
9904;SDS011;4991;43.566;27.820;2023-02-08T03:57:33;7.73;;;4.97;;
9904;SDS011;4991;43.566;27.820;2023-02-08T04:00:07;10.20;;;6.33;;
9904;SDS011;4991;43.566;27.820;2023-02-08T04:02:36;4.50;;;2.77;;
9904;SDS011;4991;43.566;27.820;2023-02-08T04:05:06;7.70;;;4.90;;
9904;SDS011;4991;43.566;27.820;2023-02-08T04:07:31;8.80;;;6.17;;
9904;SDS011;4991;43.566;27.820;2023-02-08T04:09:57;11.37;;;7.13;;
9904;SDS011;4991;43.566;27.820;2023-02-08T04:12:23;5.13;;;4.13;;
9904;SDS011;4991;43.566;27.820;2023-02-08T04:14:48;6.97;;;4.43;;
9904;SDS011;4991;43.566;27.820;2023-02-08T04:17:14;9.47;;;6.00;;
9904;SDS011;4991;43.566;27.820;2023-02-08T04:19:40;14.17;;;8.60;;
9904;SDS011;4991;43.566;27.820;2023-02-08T04:22:05;7.13;;;4.63;;
9904;SDS011;4991;43.566;27.820;2023-02-08T04:24:31;11.70;;;7.60;;
9904;SDS011;4991;43.566;27.820;2023-02-08T04:26:56;11.57;;;6.63;;
9904;SDS011;4991;43.566;27.820;2023-02-08T04:29:22;10.50;;;5.87;;
9904;SDS011;4991;43.566;27.820;2023-02-08T04:31:48;13.97;;;6.37;;
9904;SDS011;4991;43.566;27.820;2023-02-08T04:34:13;9.00;;;4.40;;
9904;SDS011;4991;43.566;27.820;2023-02-08T04:36:39;11.57;;;6.53;;
9904;SDS011;4991;43.566;27.820;2023-02-08T04:39:05;8.70;;;5.67;;
9904;SDS011;4991;43.566;27.820;2023-02-08T04:41:31;10.10;;;5.07;;
9904;SDS011;4991;43.566;27.820;2023-02-08T04:43:56;18.87;;;10.17;;
9904;SDS011;4991;43.566;27.820;2023-02-08T04:46:22;10.20;;;6.03;;
9904;SDS011;4991;43.566;27.820;2023-02-08T04:48:48;8.43;;;5.67;;
9904;SDS011;4991;43.566;27.820;2023-02-08T04:51:13;14.80;;;7.37;;
9904;SDS011;4991;43.566;27.820;2023-02-08T04:53:39;7.93;;;4.93;;
9904;SDS011;4991;43.566;27.820;2023-02-08T04:56:05;9.70;;;6.53;;
9904;SDS011;4991;43.566;27.820;2023-02-08T04:58:31;11.17;;;6.57;;
9904;SDS011;4991;43.566;27.820;2023-02-08T05:00:56;8.43;;;5.57;;
9904;SDS011;4991;43.566;27.820;2023-02-08T05:03:22;11.23;;;6.53;;
9904;SDS011;4991;43.566;27.820;2023-02-08T05:05:55;10.87;;;6.57;;
9904;SDS011;4991;43.566;27.820;2023-02-08T05:08:24;8.77;;;5.60;;
9904;SDS011;4991;43.566;27.820;2023-02-08T05:10:50;13.27;;;8.07;;
9904;SDS011;4991;43.566;27.820;2023-02-08T05:13:15;13.00;;;7.53;;
9904;SDS011;4991;43.566;27.820;2023-02-08T05:15:41;12.00;;;6.27;;
9904;SDS011;4991;43.566;27.820;2023-02-08T05:18:07;11.00;;;5.47;;
9904;SDS011;4991;43.566;27.820;2023-02-08T05:20:32;13.53;;;7.20;;
9904;SDS011;4991;43.566;27.820;2023-02-08T05:22:58;11.67;;;7.13;;
9904;SDS011;4991;43.566;27.820;2023-02-08T05:25:24;13.13;;;8.43;;
9904;SDS011;4991;43.566;27.820;2023-02-08T05:27:49;11.73;;;7.03;;
9904;SDS011;4991;43.566;27.820;2023-02-08T05:30:15;12.30;;;7.77;;
9904;SDS011;4991;43.566;27.820;2023-02-08T05:32:41;15.20;;;8.37;;
9904;SDS011;4991;43.566;27.820;2023-02-08T05:35:06;15.53;;;8.80;;
9904;SDS011;4991;43.566;27.820;2023-02-08T05:37:32;11.90;;;5.70;;
9904;SDS011;4991;43.566;27.820;2023-02-08T05:39:58;10.47;;;6.83;;
9904;SDS011;4991;43.566;27.820;2023-02-08T05:42:23;15.73;;;7.53;;
9904;SDS011;4991;43.566;27.820;2023-02-08T05:44:49;11.17;;;6.07;;
9904;SDS011;4991;43.566;27.820;2023-02-08T05:47:15;8.13;;;4.87;;
9904;SDS011;4991;43.566;27.820;2023-02-08T05:49:40;10.93;;;5.17;;
9904;SDS011;4991;43.566;27.820;2023-02-08T05:52:06;12.70;;;7.87;;
9904;SDS011;4991;43.566;27.820;2023-02-08T05:54:31;10.33;;;5.37;;
9904;SDS011;4991;43.566;27.820;2023-02-08T05:56:58;8.03;;;4.57;;
9904;SDS011;4991;43.566;27.820;2023-02-08T05:59:24;17.53;;;10.10;;
9904;SDS011;4991;43.566;27.820;2023-02-08T06:01:50;14.17;;;7.20;;
9904;SDS011;4991;43.566;27.820;2023-02-08T06:04:15;10.07;;;5.50;;
9904;SDS011;4991;43.566;27.820;2023-02-08T06:06:41;15.23;;;8.60;;
9904;SDS011;4991;43.566;27.820;2023-02-08T06:09:07;12.90;;;7.80;;
9904;SDS011;4991;43.566;27.820;2023-02-08T06:11:32;13.40;;;8.10;;
9904;SDS011;4991;43.566;27.820;2023-02-08T06:14:00;12.07;;;6.10;;
9904;SDS011;4991;43.566;27.820;2023-02-08T06:16:27;14.23;;;7.90;;
9904;SDS011;4991;43.566;27.820;2023-02-08T06:18:52;22.97;;;12.50;;
9904;SDS011;4991;43.566;27.820;2023-02-08T06:21:18;16.90;;;8.73;;
9904;SDS011;4991;43.566;27.820;2023-02-08T06:23:43;12.17;;;7.47;;
9904;SDS011;4991;43.566;27.820;2023-02-08T06:26:09;14.43;;;7.77;;
9904;SDS011;4991;43.566;27.820;2023-02-08T06:28:35;12.47;;;6.90;;
9904;SDS011;4991;43.566;27.820;2023-02-08T06:31:01;17.00;;;10.27;;
9904;SDS011;4991;43.566;27.820;2023-02-08T06:33:26;22.40;;;10.43;;
9904;SDS011;4991;43.566;27.820;2023-02-08T06:35:52;12.77;;;6.60;;
9904;SDS011;4991;43.566;27.820;2023-02-08T06:38:18;14.47;;;6.13;;
9904;SDS011;4991;43.566;27.820;2023-02-08T06:40:47;20.83;;;11.50;;
9904;SDS011;4991;43.566;27.820;2023-02-08T06:43:14;12.60;;;6.73;;
9904;SDS011;4991;43.566;27.820;2023-02-08T06:45:42;12.63;;;7.57;;
9904;SDS011;4991;43.566;27.820;2023-02-08T06:48:08;19.00;;;10.87;;
9904;SDS011;4991;43.566;27.820;2023-02-08T06:50:34;13.63;;;6.40;;
9904;SDS011;4991;43.566;27.820;2023-02-08T06:53:01;10.43;;;6.07;;
9904;SDS011;4991;43.566;27.820;2023-02-08T06:55:27;14.03;;;7.17;;
9904;SDS011;4991;43.566;27.820;2023-02-08T06:57:53;15.43;;;8.53;;
9904;SDS011;4991;43.566;27.820;2023-02-08T07:00:19;16.07;;;7.43;;
9904;SDS011;4991;43.566;27.820;2023-02-08T07:02:45;13.43;;;7.37;;
9904;SDS011;4991;43.566;27.820;2023-02-08T07:05:13;11.80;;;5.47;;
9904;SDS011;4991;43.566;27.820;2023-02-08T07:07:38;20.03;;;9.53;;
9904;SDS011;4991;43.566;27.820;2023-02-08T07:10:04;15.20;;;9.37;;
9904;SDS011;4991;43.566;27.820;2023-02-08T07:12:36;14.30;;;9.13;;
9904;SDS011;4991;43.566;27.820;2023-02-08T07:15:02;19.60;;;10.50;;
9904;SDS011;4991;43.566;27.820;2023-02-08T07:17:28;14.70;;;7.63;;
9904;SDS011;4991;43.566;27.820;2023-02-08T07:19:53;17.60;;;9.47;;
9904;SDS011;4991;43.566;27.820;2023-02-08T07:22:19;13.40;;;7.57;;
9904;SDS011;4991;43.566;27.820;2023-02-08T07:24:44;13.30;;;7.33;;
9904;SDS011;4991;43.566;27.820;2023-02-08T07:27:11;16.33;;;8.53;;
9904;SDS011;4991;43.566;27.820;2023-02-08T07:29:37;17.97;;;10.33;;
9904;SDS011;4991;43.566;27.820;2023-02-08T07:32:03;15.87;;;8.33;;
9904;SDS011;4991;43.566;27.820;2023-02-08T07:34:30;18.30;;;9.70;;
9904;SDS011;4991;43.566;27.820;2023-02-08T07:36:57;12.63;;;7.20;;
9904;SDS011;4991;43.566;27.820;2023-02-08T07:39:23;16.17;;;9.87;;
9904;SDS011;4991;43.566;27.820;2023-02-08T07:41:49;9.97;;;5.73;;
9904;SDS011;4991;43.566;27.820;2023-02-08T07:44:15;16.43;;;10.03;;
9904;SDS011;4991;43.566;27.820;2023-02-08T07:46:40;19.47;;;11.57;;
9904;SDS011;4991;43.566;27.820;2023-02-08T07:49:06;16.03;;;6.90;;
9904;SDS011;4991;43.566;27.820;2023-02-08T07:51:32;11.90;;;6.30;;
9904;SDS011;4991;43.566;27.820;2023-02-08T07:53:57;18.57;;;7.73;;
9904;SDS011;4991;43.566;27.820;2023-02-08T07:56:23;13.43;;;8.13;;
9904;SDS011;4991;43.566;27.820;2023-02-08T07:58:48;15.30;;;8.03;;
9904;SDS011;4991;43.566;27.820;2023-02-08T08:01:14;13.00;;;6.77;;
9904;SDS011;4991;43.566;27.820;2023-02-08T08:03:40;17.00;;;9.00;;
9904;SDS011;4991;43.566;27.820;2023-02-08T08:06:06;23.13;;;11.93;;
9904;SDS011;4991;43.566;27.820;2023-02-08T08:08:31;13.03;;;5.87;;
9904;SDS011;4991;43.566;27.820;2023-02-08T08:10:57;16.93;;;8.73;;
9904;SDS011;4991;43.566;27.820;2023-02-08T08:13:22;17.47;;;9.87;;
9904;SDS011;4991;43.566;27.820;2023-02-08T08:15:48;13.73;;;7.70;;
9904;SDS011;4991;43.566;27.820;2023-02-08T08:18:14;13.93;;;7.73;;
9904;SDS011;4991;43.566;27.820;2023-02-08T08:20:40;17.30;;;9.10;;
9904;SDS011;4991;43.566;27.820;2023-02-08T08:23:06;16.10;;;8.83;;
9904;SDS011;4991;43.566;27.820;2023-02-08T08:25:32;12.20;;;6.70;;
9904;SDS011;4991;43.566;27.820;2023-02-08T08:27:58;14.37;;;9.17;;
9904;SDS011;4991;43.566;27.820;2023-02-08T08:30:25;19.60;;;9.83;;
9904;SDS011;4991;43.566;27.820;2023-02-08T08:32:51;15.60;;;8.10;;
9904;SDS011;4991;43.566;27.820;2023-02-08T08:35:16;11.67;;;7.43;;
9904;SDS011;4991;43.566;27.820;2023-02-08T08:37:42;13.37;;;7.23;;
9904;SDS011;4991;43.566;27.820;2023-02-08T08:40:08;20.97;;;10.70;;
9904;SDS011;4991;43.566;27.820;2023-02-08T08:42:34;13.23;;;6.47;;
9904;SDS011;4991;43.566;27.820;2023-02-08T08:45:00;11.73;;;6.27;;
9904;SDS011;4991;43.566;27.820;2023-02-08T08:47:27;18.63;;;8.20;;
9904;SDS011;4991;43.566;27.820;2023-02-08T08:49:53;15.07;;;8.87;;
9904;SDS011;4991;43.566;27.820;2023-02-08T08:52:18;18.40;;;10.17;;
9904;SDS011;4991;43.566;27.820;2023-02-08T08:54:44;13.60;;;7.87;;
9904;SDS011;4991;43.566;27.820;2023-02-08T08:57:09;13.17;;;8.97;;
9904;SDS011;4991;43.566;27.820;2023-02-08T08:59:35;8.67;;;5.03;;
9904;SDS011;4991;43.566;27.820;2023-02-08T09:02:01;22.13;;;10.67;;
9904;SDS011;4991;43.566;27.820;2023-02-08T09:04:26;23.83;;;12.40;;
9904;SDS011;4991;43.566;27.820;2023-02-08T09:06:52;20.37;;;10.50;;
9904;SDS011;4991;43.566;27.820;2023-02-08T09:09:19;17.83;;;9.27;;
9904;SDS011;4991;43.566;27.820;2023-02-08T09:11:47;15.50;;;6.77;;
9904;SDS011;4991;43.566;27.820;2023-02-08T09:14:13;14.30;;;7.27;;
9904;SDS011;4991;43.566;27.820;2023-02-08T09:16:42;14.73;;;7.13;;
9904;SDS011;4991;43.566;27.820;2023-02-08T09:19:12;17.40;;;8.10;;
9904;SDS011;4991;43.566;27.820;2023-02-08T09:21:39;23.83;;;12.20;;
9904;SDS011;4991;43.566;27.820;2023-02-08T09:24:05;10.40;;;6.73;;
9904;SDS011;4991;43.566;27.820;2023-02-08T09:26:31;16.57;;;8.37;;
9904;SDS011;4991;43.566;27.820;2023-02-08T09:28:56;16.23;;;8.20;;
9904;SDS011;4991;43.566;27.820;2023-02-08T09:31:27;18.57;;;10.80;;
9904;SDS011;4991;43.566;27.820;2023-02-08T09:33:57;14.07;;;7.03;;
9904;SDS011;4991;43.566;27.820;2023-02-08T09:36:25;14.47;;;7.50;;
9904;SDS011;4991;43.566;27.820;2023-02-08T09:38:56;17.97;;;10.10;;
9904;SDS011;4991;43.566;27.820;2023-02-08T09:49:50;18.50;;;8.50;;
9904;SDS011;4991;43.566;27.820;2023-02-08T09:52:20;23.77;;;12.57;;
9904;SDS011;4991;43.566;27.820;2023-02-08T09:54:56;21.00;;;8.20;;
9904;SDS011;4991;43.566;27.820;2023-02-08T09:57:27;16.57;;;7.83;;
9904;SDS011;4991;43.566;27.820;2023-02-08T09:59:57;25.23;;;11.80;;
9904;SDS011;4991;43.566;27.820;2023-02-08T10:02:27;24.63;;;13.67;;
9904;SDS011;4991;43.566;27.820;2023-02-08T10:07:32;24.40;;;12.73;;
9904;SDS011;4991;43.566;27.820;2023-02-08T10:10:00;19.00;;;9.77;;
9904;SDS011;4991;43.566;27.820;2023-02-08T10:12:52;22.37;;;13.77;;
9904;SDS011;4991;43.566;27.820;2023-02-08T10:18:05;22.03;;;11.00;;
9904;SDS011;4991;43.566;27.820;2023-02-08T10:23:17;23.10;;;11.27;;
9904;SDS011;4991;43.566;27.820;2023-02-08T10:26:00;12.03;;;7.50;;
9904;SDS011;4991;43.566;27.820;2023-02-08T10:31:33;19.93;;;11.30;;
9904;SDS011;4991;43.566;27.820;2023-02-08T10:36:49;18.20;;;9.10;;
9904;SDS011;4991;43.566;27.820;2023-02-08T10:39:16;23.87;;;11.20;;
9904;SDS011;4991;43.566;27.820;2023-02-08T10:41:46;18.57;;;10.37;;
9904;SDS011;4991;43.566;27.820;2023-02-08T10:46:45;22.57;;;13.70;;
9904;SDS011;4991;43.566;27.820;2023-02-08T10:51:47;20.10;;;11.90;;
9904;SDS011;4991;43.566;27.820;2023-02-08T10:54:13;25.57;;;11.07;;
9904;SDS011;4991;43.566;27.820;2023-02-08T10:57:03;16.83;;;9.63;;
9904;SDS011;4991;43.566;27.820;2023-02-08T11:02:23;19.87;;;10.73;;
9904;SDS011;4991;43.566;27.820;2023-02-08T11:07:31;28.90;;;13.77;;
9904;SDS011;4991;43.566;27.820;2023-02-08T11:10:44;17.13;;;10.47;;
9904;SDS011;4991;43.566;27.820;2023-02-08T11:15:48;25.37;;;14.70;;
9904;SDS011;4991;43.566;27.820;2023-02-08T11:20:58;11.83;;;7.90;;
9904;SDS011;4991;43.566;27.820;2023-02-08T11:23:33;20.53;;;10.80;;
9904;SDS011;4991;43.566;27.820;2023-02-08T11:28:58;19.33;;;10.50;;
9904;SDS011;4991;43.566;27.820;2023-02-08T11:31:24;31.33;;;15.30;;
9904;SDS011;4991;43.566;27.820;2023-02-08T11:34:03;17.80;;;9.80;;
9904;SDS011;4991;43.566;27.820;2023-02-08T11:36:32;20.43;;;11.57;;
9904;SDS011;4991;43.566;27.820;2023-02-08T11:39:14;25.83;;;11.73;;
9904;SDS011;4991;43.566;27.820;2023-02-08T11:41:43;12.63;;;6.53;;
9904;SDS011;4991;43.566;27.820;2023-02-08T11:44:13;13.70;;;7.87;;
9904;SDS011;4991;43.566;27.820;2023-02-08T11:46:46;19.37;;;11.00;;
9904;SDS011;4991;43.566;27.820;2023-02-08T11:49:34;19.50;;;10.00;;
9904;SDS011;4991;43.566;27.820;2023-02-08T11:52:06;21.43;;;10.63;;
9904;SDS011;4991;43.566;27.820;2023-02-08T11:54:44;23.50;;;12.47;;
9904;SDS011;4991;43.566;27.820;2023-02-08T11:57:11;14.60;;;8.03;;
9904;SDS011;4991;43.566;27.820;2023-02-08T11:59:37;15.27;;;8.93;;
9904;SDS011;4991;43.566;27.820;2023-02-08T12:04:52;12.47;;;7.73;;
9904;SDS011;4991;43.566;27.820;2023-02-08T12:07:27;16.30;;;11.57;;
9904;SDS011;4991;43.566;27.820;2023-02-08T12:12:44;25.13;;;14.83;;
9904;SDS011;4991;43.566;27.820;2023-02-08T12:20:46;18.20;;;9.53;;
9904;SDS011;4991;43.566;27.820;2023-02-08T12:40:27;26.97;;;13.93;;
9904;SDS011;4991;43.566;27.820;2023-02-08T12:45:54;23.27;;;8.90;;
9904;SDS011;4991;43.566;27.820;2023-02-08T12:51:35;19.80;;;10.60;;
9904;SDS011;4991;43.566;27.820;2023-02-08T12:54:27;16.10;;;8.70;;
9904;SDS011;4991;43.566;27.820;2023-02-08T12:56:59;25.20;;;12.77;;
9904;SDS011;4991;43.566;27.820;2023-02-08T12:59:34;23.53;;;11.23;;
9904;SDS011;4991;43.566;27.820;2023-02-08T13:02:08;23.40;;;11.93;;
9904;SDS011;4991;43.566;27.820;2023-02-08T13:04:42;19.00;;;9.80;;
9904;SDS011;4991;43.566;27.820;2023-02-08T13:09:53;13.77;;;7.03;;
9904;SDS011;4991;43.566;27.820;2023-02-08T13:12:23;26.30;;;13.73;;
9904;SDS011;4991;43.566;27.820;2023-02-08T13:17:29;23.93;;;11.60;;
9904;SDS011;4991;43.566;27.820;2023-02-08T13:20:18;15.57;;;9.07;;
9904;SDS011;4991;43.566;27.820;2023-02-08T13:22:45;18.47;;;9.20;;
9904;SDS011;4991;43.566;27.820;2023-02-08T13:25:23;13.77;;;7.50;;
9904;SDS011;4991;43.566;27.820;2023-02-08T13:27:58;16.83;;;8.97;;
9904;SDS011;4991;43.566;27.820;2023-02-08T13:30:25;20.37;;;10.70;;
9904;SDS011;4991;43.566;27.820;2023-02-08T13:32:51;25.33;;;12.00;;
9904;SDS011;4991;43.566;27.820;2023-02-08T13:35:30;16.43;;;8.77;;
9904;SDS011;4991;43.566;27.820;2023-02-08T13:40:34;19.63;;;10.77;;
9904;SDS011;4991;43.566;27.820;2023-02-08T13:43:02;23.63;;;11.80;;
9904;SDS011;4991;43.566;27.820;2023-02-08T13:45:42;12.07;;;6.80;;
9904;SDS011;4991;43.566;27.820;2023-02-08T13:48:11;16.37;;;9.90;;
9904;SDS011;4991;43.566;27.820;2023-02-08T13:53:14;17.23;;;8.33;;
9904;SDS011;4991;43.566;27.820;2023-02-08T13:55:51;16.97;;;10.13;;
9904;SDS011;4991;43.566;27.820;2023-02-08T14:06:05;20.97;;;11.23;;
9904;SDS011;4991;43.566;27.820;2023-02-08T14:11:46;27.17;;;12.50;;
9904;SDS011;4991;43.566;27.820;2023-02-08T14:16:45;23.30;;;9.80;;
9904;SDS011;4991;43.566;27.820;2023-02-08T14:19:28;16.53;;;9.63;;
9904;SDS011;4991;43.566;27.820;2023-02-08T14:24:30;15.33;;;9.03;;
9904;SDS011;4991;43.566;27.820;2023-02-08T14:27:06;22.80;;;13.47;;
9904;SDS011;4991;43.566;27.820;2023-02-08T14:29:56;17.77;;;10.37;;
9904;SDS011;4991;43.566;27.820;2023-02-08T14:32:25;22.27;;;12.30;;
9904;SDS011;4991;43.566;27.820;2023-02-08T14:35:01;25.67;;;12.70;;
9904;SDS011;4991;43.566;27.820;2023-02-08T14:37:33;19.50;;;10.90;;
9904;SDS011;4991;43.566;27.820;2023-02-08T14:43:03;11.10;;;6.93;;
9904;SDS011;4991;43.566;27.820;2023-02-08T14:45:51;32.07;;;15.90;;
9904;SDS011;4991;43.566;27.820;2023-02-08T14:53:56;29.00;;;14.00;;
9904;SDS011;4991;43.566;27.820;2023-02-08T14:56:42;12.47;;;7.17;;
9904;SDS011;4991;43.566;27.820;2023-02-08T14:59:19;18.40;;;9.27;;
9904;SDS011;4991;43.566;27.820;2023-02-08T15:01:53;19.30;;;11.37;;
9904;SDS011;4991;43.566;27.820;2023-02-08T15:04:41;19.40;;;9.33;;
9904;SDS011;4991;43.566;27.820;2023-02-08T15:09:45;18.07;;;9.00;;
9904;SDS011;4991;43.566;27.820;2023-02-08T15:15:00;16.77;;;8.87;;
9904;SDS011;4991;43.566;27.820;2023-02-08T15:17:34;22.50;;;9.13;;
9904;SDS011;4991;43.566;27.820;2023-02-08T15:20:06;16.70;;;9.43;;
9904;SDS011;4991;43.566;27.820;2023-02-08T15:22:41;20.77;;;10.10;;
9904;SDS011;4991;43.566;27.820;2023-02-08T15:25:26;21.63;;;12.03;;
9904;SDS011;4991;43.566;27.820;2023-02-08T15:27:56;22.73;;;12.80;;
9904;SDS011;4991;43.566;27.820;2023-02-08T15:30:42;32.37;;;16.03;;
9904;SDS011;4991;43.566;27.820;2023-02-08T15:33:09;22.77;;;12.00;;
9904;SDS011;4991;43.566;27.820;2023-02-08T15:35:39;17.70;;;10.57;;
9904;SDS011;4991;43.566;27.820;2023-02-08T15:38:39;18.40;;;10.57;;
9904;SDS011;4991;43.566;27.820;2023-02-08T15:41:07;21.77;;;13.13;;
9904;SDS011;4991;43.566;27.820;2023-02-08T15:43:35;13.80;;;7.43;;
9904;SDS011;4991;43.566;27.820;2023-02-08T15:46:03;15.53;;;6.80;;
9904;SDS011;4991;43.566;27.820;2023-02-08T15:48:31;24.80;;;11.33;;
9904;SDS011;4991;43.566;27.820;2023-02-08T15:50:59;20.50;;;10.23;;
9904;SDS011;4991;43.566;27.820;2023-02-08T15:53:26;16.53;;;9.57;;
9904;SDS011;4991;43.566;27.820;2023-02-08T15:55:57;17.10;;;9.40;;
9904;SDS011;4991;43.566;27.820;2023-02-08T15:58:29;16.83;;;9.23;;
9904;SDS011;4991;43.566;27.820;2023-02-08T16:01:00;25.67;;;13.27;;
9904;SDS011;4991;43.566;27.820;2023-02-08T16:03:28;26.70;;;13.40;;
9904;SDS011;4991;43.566;27.820;2023-02-08T16:05:59;26.03;;;9.50;;
9904;SDS011;4991;43.566;27.820;2023-02-08T16:08:31;24.30;;;12.17;;
9904;SDS011;4991;43.566;27.820;2023-02-08T16:11:00;13.40;;;6.13;;
9904;SDS011;4991;43.566;27.820;2023-02-08T16:13:38;13.73;;;8.50;;
9904;SDS011;4991;43.566;27.820;2023-02-08T16:18:55;27.07;;;12.93;;
9904;SDS011;4991;43.566;27.820;2023-02-08T16:23:53;20.00;;;11.93;;
9904;SDS011;4991;43.566;27.820;2023-02-08T16:26:25;18.30;;;8.07;;
9904;SDS011;4991;43.566;27.820;2023-02-08T16:28:59;19.37;;;10.63;;
9904;SDS011;4991;43.566;27.820;2023-02-08T16:31:28;14.77;;;7.87;;
9904;SDS011;4991;43.566;27.820;2023-02-08T16:33:56;15.50;;;6.93;;
9904;SDS011;4991;43.566;27.820;2023-02-08T16:36:32;9.73;;;5.23;;
9904;SDS011;4991;43.566;27.820;2023-02-08T16:44:36;23.13;;;12.23;;
9904;SDS011;4991;43.566;27.820;2023-02-08T16:47:22;17.63;;;9.73;;
9904;SDS011;4991;43.566;27.820;2023-02-08T16:49:50;22.47;;;11.27;;
9904;SDS011;4991;43.566;27.820;2023-02-08T16:52:16;20.93;;;12.67;;
9904;SDS011;4991;43.566;27.820;2023-02-08T16:54:41;18.90;;;10.57;;
9904;SDS011;4991;43.566;27.820;2023-02-08T16:57:07;18.43;;;10.27;;
9904;SDS011;4991;43.566;27.820;2023-02-08T16:59:33;22.53;;;13.67;;
9904;SDS011;4991;43.566;27.820;2023-02-08T17:01:59;8.73;;;5.77;;
9904;SDS011;4991;43.566;27.820;2023-02-08T17:04:25;18.53;;;10.77;;
9904;SDS011;4991;43.566;27.820;2023-02-08T17:06:50;28.07;;;12.43;;
9904;SDS011;4991;43.566;27.820;2023-02-08T17:09:16;20.90;;;12.17;;
9904;SDS011;4991;43.566;27.820;2023-02-08T17:11:43;21.47;;;10.70;;
9904;SDS011;4991;43.566;27.820;2023-02-08T17:14:11;16.07;;;8.10;;
9904;SDS011;4991;43.566;27.820;2023-02-08T17:16:36;26.77;;;14.40;;
9904;SDS011;4991;43.566;27.820;2023-02-08T17:19:04;12.63;;;6.83;;
9904;SDS011;4991;43.566;27.820;2023-02-08T17:21:30;19.47;;;8.67;;
9904;SDS011;4991;43.566;27.820;2023-02-08T17:23:56;23.77;;;13.03;;
9904;SDS011;4991;43.566;27.820;2023-02-08T17:26:26;25.60;;;13.40;;
9904;SDS011;4991;43.566;27.820;2023-02-08T17:28:56;27.87;;;12.00;;
9904;SDS011;4991;43.566;27.820;2023-02-08T17:31:25;28.80;;;13.00;;
9904;SDS011;4991;43.566;27.820;2023-02-08T17:33:53;17.37;;;10.63;;
9904;SDS011;4991;43.566;27.820;2023-02-08T17:36:22;21.47;;;10.20;;
9904;SDS011;4991;43.566;27.820;2023-02-08T17:38:48;23.13;;;13.10;;
9904;SDS011;4991;43.566;27.820;2023-02-08T17:41:15;25.23;;;14.47;;